Time;durP1;ratioP1;P1;durP2;ratioP2;P2;SDS_P1;SDS_P2;PMS_P1;PMS_P2;Temp;Humidity;BMP_temperature;BMP_pressure;BME280_temperature;BME280_humidity;BME280_pressure;Samples;Min_cycle;Max_cycle;Signal;HPM_P1;HPM_P2
2024/02/28 00:01:37;;;;;;;3.10;3.00;;;24.20;1.00;;;;;;2610408;54;20180;-66
2024/02/28 00:04:03;;;;;;;2.70;2.60;;;24.20;1.00;;;;;;2610008;54;20420;-66
2024/02/28 00:06:29;;;;;;;3.10;3.00;;;24.20;1.00;;;;;;2610595;54;20414;-66
2024/02/28 00:08:55;;;;;;;3.00;2.90;;;24.20;1.00;;;;;;2610318;54;20159;-63
2024/02/28 00:11:21;;;;;;;2.83;2.73;;;24.10;1.00;;;;;;2610752;54;20169;-62
2024/02/28 00:13:46;;;;;;;3.20;3.10;;;24.10;1.00;;;;;;2610519;39;20639;-62
2024/02/28 00:16:12;;;;;;;3.00;2.90;;;24.10;1.00;;;;;;2610836;54;21439;-62
2024/02/28 00:18:38;;;;;;;2.93;2.83;;;24.00;1.00;;;;;;2610610;54;20173;-63
2024/02/28 00:21:04;;;;;;;2.70;2.60;;;24.00;1.00;;;;;;2611338;39;20629;-63
2024/02/28 00:23:30;;;;;;;2.90;2.80;;;24.00;1.00;;;;;;2610690;54;20714;-62
2024/02/28 00:25:56;;;;;;;2.67;2.57;;;24.00;1.00;;;;;;2610855;54;20151;-62
2024/02/28 00:28:21;;;;;;;2.60;2.50;;;24.00;1.00;;;;;;2611611;54;20945;-72
2024/02/28 00:30:47;;;;;;;2.83;2.73;;;24.00;1.00;;;;;;2611494;54;20182;-72
2024/02/28 00:33:12;;;;;;;3.00;2.90;;;23.90;1.00;;;;;;2611246;54;20194;-72
2024/02/28 00:35:40;;;;;;;2.67;2.57;;;23.90;1.00;;;;;;2611863;54;20213;-72
2024/02/28 00:38:05;;;;;;;2.70;2.60;;;23.90;1.00;;;;;;2611049;54;20174;-72
2024/02/28 00:40:31;;;;;;;10.43;5.27;;;23.90;1.00;;;;;;2610888;54;20424;-72
2024/02/28 00:42:57;;;;;;;2.90;2.80;;;23.90;1.00;;;;;;2610636;54;20158;-73
2024/02/28 00:45:23;;;;;;;2.80;2.70;;;23.90;1.00;;;;;;2610636;54;20191;-72
2024/02/28 00:47:49;;;;;;;2.90;2.80;;;23.80;1.00;;;;;;2610736;54;20393;-73
2024/02/28 00:50:15;;;;;;;2.60;2.50;;;23.80;1.00;;;;;;2611346;54;20668;-72
2024/02/28 00:52:41;;;;;;;3.00;2.90;;;23.80;1.00;;;;;;2610945;39;20406;-72
2024/02/28 00:55:07;;;;;;;2.90;2.80;;;23.80;1.00;;;;;;2611816;54;20159;-72
2024/02/28 00:57:32;;;;;;;2.50;2.40;;;23.80;1.00;;;;;;2611042;47;20939;-72
2024/02/28 00:59:59;;;;;;;3.20;3.10;;;23.70;1.00;;;;;;2610770;54;20424;-72
2024/02/28 01:02:25;;;;;;;3.40;3.30;;;23.80;1.00;;;;;;2611004;54;20148;-72
2024/02/28 01:04:50;;;;;;;3.13;3.03;;;23.70;1.00;;;;;;2610307;54;20459;-72
2024/02/28 01:07:16;;;;;;;3.03;2.93;;;23.70;1.00;;;;;;2610924;54;20145;-72
2024/02/28 01:09:42;;;;;;;2.90;2.80;;;23.70;1.00;;;;;;2612007;54;20738;-72
2024/02/28 01:12:08;;;;;;;3.10;3.00;;;23.70;1.00;;;;;;2612143;54;20451;-72
2024/02/28 01:14:33;;;;;;;3.20;3.10;;;23.60;1.00;;;;;;2613151;54;20715;-73
2024/02/28 01:16:59;;;;;;;2.57;2.47;;;23.60;1.00;;;;;;2612875;54;20172;-72
2024/02/28 01:19:25;;;;;;;3.40;3.30;;;23.60;1.00;;;;;;2613181;54;20146;-66
2024/02/28 01:21:50;;;;;;;3.50;3.40;;;23.60;1.00;;;;;;2612006;54;20170;-66
2024/02/28 01:24:16;;;;;;;3.00;2.90;;;23.60;1.00;;;;;;2612151;54;20169;-66
2024/02/28 01:26:41;;;;;;;2.90;2.80;;;23.60;1.00;;;;;;2612936;54;20204;-66
2024/02/28 01:29:07;;;;;;;2.80;2.70;;;23.60;1.00;;;;;;2612952;39;20610;-65
2024/02/28 01:31:33;;;;;;;3.00;2.90;;;23.50;1.00;;;;;;2611449;54;20142;-66
2024/02/28 01:33:58;;;;;;;4.90;4.60;;;23.50;1.00;;;;;;2612403;54;20146;-66
2024/02/28 01:36:26;;;;;;;3.00;2.90;;;23.50;1.00;;;;;;2611590;46;20598;-66
2024/02/28 01:38:51;;;;;;;2.97;2.87;;;23.50;1.00;;;;;;2612818;54;20155;-63
2024/02/28 01:41:17;;;;;;;3.00;2.90;;;23.50;1.00;;;;;;2613275;54;20406;-64
2024/02/28 01:43:43;;;;;;;3.10;3.00;;;23.50;1.00;;;;;;2612036;54;20164;-62
2024/02/28 01:46:27;;;;;;;3.00;2.90;;;23.40;1.00;;;;;;2612216;54;20143;-63
2024/02/28 01:48:54;;;;;;;2.90;2.80;;;23.40;1.00;;;;;;2611845;54;20178;-63
2024/02/28 01:51:22;;;;;;;3.20;3.10;;;23.40;1.00;;;;;;2611546;39;20887;-63
2024/02/28 01:53:49;;;;;;;3.00;2.90;;;23.40;1.00;;;;;;2612063;54;20421;-63
2024/02/28 01:56:16;;;;;;;2.90;2.80;;;23.40;1.00;;;;;;2612639;54;20398;-63
2024/02/28 01:58:45;;;;;;;2.70;2.60;;;23.40;1.00;;;;;;2612210;54;20984;-63
2024/02/28 02:01:13;;;;;;;3.13;3.03;;;23.40;1.00;;;;;;2611329;54;20438;-63
2024/02/28 02:03:39;;;;;;;3.57;3.47;;;23.30;1.00;;;;;;2610858;54;20411;-63
2024/02/28 02:06:05;;;;;;;3.40;3.30;;;23.30;1.00;;;;;;2611628;54;20430;-63
2024/02/28 02:08:32;;;;;;;3.30;3.20;;;23.30;1.00;;;;;;2611387;54;20174;-63
2024/02/28 02:10:58;;;;;;;3.20;3.10;;;23.30;1.00;;;;;;2611614;54;20399;-63
2024/02/28 02:13:23;;;;;;;2.87;2.77;;;23.30;1.00;;;;;;2609989;54;20459;-63
2024/02/28 02:15:49;;;;;;;2.70;2.60;;;23.20;1.00;;;;;;2611591;54;20154;-63
2024/02/28 02:18:15;;;;;;;3.00;2.90;;;23.20;1.00;;;;;;2612138;39;20558;-63
2024/02/28 02:20:46;;;;;;;3.00;2.90;;;23.20;1.00;;;;;;2610939;46;20169;-62
2024/02/28 02:23:13;;;;;;;3.00;2.90;;;23.20;1.00;;;;;;2610928;54;20224;-63
2024/02/28 02:25:48;;;;;;;2.90;2.80;;;23.20;1.00;;;;;;2610145;54;20490;-63
2024/02/28 02:28:15;;;;;;;2.57;2.47;;;23.20;1.00;;;;;;2610262;54;20499;-72
2024/02/28 02:30:42;;;;;;;3.33;3.23;;;23.10;1.00;;;;;;2611713;47;20414;-73
2024/02/28 02:33:08;;;;;;;3.20;3.10;;;23.10;1.00;;;;;;2610692;54;20518;-72
2024/02/28 02:35:34;;;;;;;3.17;3.07;;;23.20;1.00;;;;;;2612108;39;20849;-73
2024/02/28 02:38:00;;;;;;;3.00;2.90;;;23.20;1.00;;;;;;2611532;39;20626;-73
2024/02/28 02:40:26;;;;;;;3.00;2.90;;;23.10;1.00;;;;;;2611702;54;20403;-74
2024/02/28 02:42:52;;;;;;;3.20;3.10;;;23.10;1.00;;;;;;2609846;39;20800;-73
2024/02/28 02:45:17;;;;;;;3.07;2.97;;;23.10;1.00;;;;;;2611982;54;20198;-73
2024/02/28 02:47:46;;;;;;;3.20;3.10;;;23.10;1.00;;;;;;2612406;54;20151;-65
2024/02/28 02:50:12;;;;;;;3.30;3.20;;;23.10;1.00;;;;;;2610049;54;20150;-66
2024/02/28 02:52:38;;;;;;;3.10;3.00;;;23.10;1.00;;;;;;2611062;54;20521;-67
2024/02/28 02:55:04;;;;;;;3.40;3.30;;;23.10;1.00;;;;;;2611327;54;20402;-66
2024/02/28 02:57:31;;;;;;;3.50;3.40;;;23.00;1.00;;;;;;2610887;54;20427;-66
2024/02/28 02:59:57;;;;;;;3.50;3.40;;;23.00;1.00;;;;;;2610989;54;20404;-66
2024/02/28 03:02:23;;;;;;;4.30;4.00;;;23.00;1.00;;;;;;2610793;54;20424;-67
2024/02/28 03:04:49;;;;;;;3.30;3.20;;;23.00;1.00;;;;;;2609253;54;21702;-66
2024/02/28 03:07:14;;;;;;;3.33;3.23;;;23.00;1.00;;;;;;2609920;54;20158;-64
2024/02/28 03:09:40;;;;;;;3.23;3.13;;;23.00;1.00;;;;;;2610712;47;20678;-65
2024/02/28 03:12:07;;;;;;;3.50;3.40;;;23.00;1.00;;;;;;2610725;39;21512;-67
2024/02/28 03:14:32;;;;;;;3.20;3.10;;;23.00;1.00;;;;;;2610821;54;21371;-67
2024/02/28 03:16:58;;;;;;;3.37;3.27;;;23.00;1.00;;;;;;2609967;54;20446;-65
2024/02/28 03:19:24;;;;;;;3.40;3.30;;;23.00;1.00;;;;;;2610511;47;20162;-65
2024/02/28 03:21:50;;;;;;;3.43;3.33;;;22.90;1.00;;;;;;2610332;54;20176;-65
2024/02/28 03:24:15;;;;;;;3.03;2.93;;;22.90;1.00;;;;;;2611280;47;20161;-65
2024/02/28 03:26:42;;;;;;;2.97;2.87;;;22.90;1.00;;;;;;2609556;54;20469;-65
2024/02/28 03:29:08;;;;;;;4.17;4.07;;;22.90;1.00;;;;;;2610684;54;20692;-65
2024/02/28 03:31:33;;;;;;;3.00;2.90;;;22.90;1.00;;;;;;2610428;54;20411;-65
2024/02/28 03:33:59;;;;;;;3.00;2.90;;;22.80;1.00;;;;;;2608938;54;20170;-66
2024/02/28 03:36:25;;;;;;;3.33;3.23;;;22.80;1.00;;;;;;2611598;54;20199;-65
2024/02/28 03:38:50;;;;;;;3.53;3.43;;;22.90;1.00;;;;;;2610722;54;20197;-66
2024/02/28 03:41:16;;;;;;;3.10;3.00;;;22.90;1.00;;;;;;2610845;54;20846;-67
2024/02/28 03:43:42;;;;;;;3.30;3.20;;;22.80;1.00;;;;;;2610797;54;20181;-67
2024/02/28 03:46:09;;;;;;;3.47;3.37;;;22.80;1.00;;;;;;2610271;39;20380;-66
2024/02/28 03:48:34;;;;;;;3.40;3.30;;;22.80;1.00;;;;;;2610280;54;20155;-66
2024/02/28 03:51:00;;;;;;;3.40;3.30;;;22.80;1.00;;;;;;2610825;54;20437;-65
2024/02/28 03:53:26;;;;;;;3.10;3.00;;;22.80;1.00;;;;;;2610784;49;20294;-66
2024/02/28 03:55:52;;;;;;;3.13;3.03;;;22.80;1.00;;;;;;2611190;54;20161;-67
2024/02/28 03:58:17;;;;;;;3.27;3.17;;;22.80;1.00;;;;;;2611386;54;20490;-72
2024/02/28 04:00:46;;;;;;;3.40;3.30;;;22.80;1.00;;;;;;2611105;54;20213;-72
2024/02/28 04:03:13;;;;;;;3.60;3.50;;;22.70;1.00;;;;;;2611338;54;20161;-72
2024/02/28 04:05:39;;;;;;;3.13;3.03;;;22.80;1.00;;;;;;2610739;39;20815;-72
2024/02/28 04:08:05;;;;;;;3.30;3.20;;;22.70;1.00;;;;;;2610254;54;21260;-72
2024/02/28 04:10:31;;;;;;;3.53;3.43;;;22.80;1.00;;;;;;2610749;54;20425;-72
2024/02/28 04:12:57;;;;;;;3.40;3.30;;;22.70;1.00;;;;;;2610553;54;20434;-72
2024/02/28 04:15:25;;;;;;;3.80;3.70;;;22.70;1.00;;;;;;2611393;54;20150;-71
2024/02/28 04:17:51;;;;;;;3.30;3.20;;;22.70;1.00;;;;;;2611974;39;20971;-72
2024/02/28 04:20:17;;;;;;;3.00;2.90;;;22.70;1.00;;;;;;2610901;47;20563;-72
2024/02/28 04:22:43;;;;;;;2.90;2.80;;;22.70;1.00;;;;;;2611984;54;20431;-71
2024/02/28 04:25:09;;;;;;;3.23;3.13;;;22.60;1.00;;;;;;2610300;54;20467;-73
2024/02/28 04:27:36;;;;;;;3.20;3.10;;;22.60;1.00;;;;;;2611026;54;20159;-72
2024/02/28 04:30:01;;;;;;;3.60;3.50;;;22.70;1.00;;;;;;2611974;54;20399;-73
2024/02/28 04:32:27;;;;;;;3.17;3.07;;;22.60;1.00;;;;;;2610744;54;20400;-72
2024/02/28 04:34:53;;;;;;;3.60;3.50;;;22.60;1.00;;;;;;2610544;54;20168;-72
2024/02/28 04:37:18;;;;;;;3.40;3.30;;;22.60;1.00;;;;;;2610871;54;20161;-72
2024/02/28 04:39:44;;;;;;;3.50;3.40;;;22.60;1.00;;;;;;2609820;47;20190;-73
2024/02/28 04:42:10;;;;;;;4.20;4.10;;;22.60;1.00;;;;;;2611699;54;20153;-72
2024/02/28 04:44:35;;;;;;;3.80;3.70;;;22.60;1.00;;;;;;2611000;54;20217;-73
2024/02/28 04:47:02;;;;;;;3.60;3.50;;;22.60;1.00;;;;;;2611175;54;20255;-72
2024/02/28 04:49:28;;;;;;;3.80;3.70;;;22.60;1.00;;;;;;2610046;54;20734;-63
2024/02/28 04:51:53;;;;;;;3.80;3.70;;;22.60;1.00;;;;;;2609984;54;20454;-62
2024/02/28 04:54:19;;;;;;;3.70;3.60;;;22.60;1.00;;;;;;2609551;54;20218;-63
2024/02/28 04:56:46;;;;;;;4.83;4.63;;;22.50;1.00;;;;;;2610795;54;20153;-63
2024/02/28 04:59:12;;;;;;;3.40;3.30;;;22.50;1.00;;;;;;2609949;54;20164;-64
2024/02/28 05:01:39;;;;;;;3.70;3.60;;;22.60;1.00;;;;;;2610781;54;20420;-64
2024/02/28 05:04:06;;;;;;;3.50;3.40;;;22.50;1.00;;;;;;2609990;47;20489;-62
2024/02/28 05:06:32;;;;;;;3.50;3.40;;;22.50;1.00;;;;;;2609368;54;20499;-61
2024/02/28 05:08:58;;;;;;;3.40;3.30;;;22.60;1.00;;;;;;2612508;54;20398;-66
2024/02/28 05:11:23;;;;;;;3.60;3.50;;;22.60;1.00;;;;;;2610059;54;20167;-68
2024/02/28 05:13:49;;;;;;;3.90;3.80;;;22.60;1.00;;;;;;2609239;54;20702;-68
2024/02/28 05:16:15;;;;;;;3.60;3.50;;;22.50;1.00;;;;;;2610460;47;20157;-68
2024/02/28 05:18:41;;;;;;;3.00;2.90;;;22.60;1.00;;;;;;2610047;54;20167;-67
2024/02/28 05:21:07;;;;;;;2.80;2.70;;;22.60;1.00;;;;;;2609608;54;20413;-67
2024/02/28 05:23:32;;;;;;;3.20;3.10;;;22.60;1.00;;;;;;2610143;54;20191;-67
2024/02/28 05:26:03;;;;;;;5.40;5.10;;;22.60;1.00;;;;;;2610323;39;20878;-67
2024/02/28 05:28:30;;;;;;;3.70;3.60;;;22.60;1.00;;;;;;2609541;54;20238;-67
2024/02/28 05:30:55;;;;;;;3.73;3.63;;;22.60;1.00;;;;;;2609481;54;20448;-66
2024/02/28 05:33:21;;;;;;;3.80;3.70;;;22.60;1.00;;;;;;2610235;47;20978;-68
2024/02/28 05:35:47;;;;;;;3.37;3.27;;;22.70;1.00;;;;;;2609763;47;20220;-69
2024/02/28 05:38:13;;;;;;;4.20;4.10;;;22.70;1.00;;;;;;2609684;47;20177;-66
2024/02/28 05:40:41;;;;;;;3.20;3.10;;;22.60;1.00;;;;;;2609638;54;20170;-67
2024/02/28 05:43:07;;;;;;;3.20;3.10;;;22.70;1.00;;;;;;2610005;47;20421;-68
2024/02/28 05:45:33;;;;;;;3.43;3.33;;;22.70;1.00;;;;;;2609399;54;20431;-68
2024/02/28 05:47:59;;;;;;;3.67;3.57;;;22.60;1.00;;;;;;2609575;47;20421;-68
2024/02/28 05:50:25;;;;;;;2.97;2.87;;;22.60;1.00;;;;;;2609913;54;20464;-68
2024/02/28 05:52:50;;;;;;;2.90;2.80;;;22.60;1.00;;;;;;2609313;39;20880;-67
2024/02/28 05:55:17;;;;;;;3.10;3.00;;;22.60;1.00;;;;;;2610558;39;21304;-68
2024/02/28 05:57:43;;;;;;;3.10;3.00;;;22.60;1.00;;;;;;2610061;54;20148;-66
2024/02/28 06:00:13;;;;;;;3.30;3.20;;;22.60;1.00;;;;;;2611473;54;20414;-65
2024/02/28 06:02:40;;;;;;;4.73;4.53;;;22.60;1.00;;;;;;2609837;39;20563;-65
2024/02/28 06:05:06;;;;;;;3.70;3.60;;;22.60;1.00;;;;;;2610538;47;21060;-68
2024/02/28 06:07:31;;;;;;;3.00;2.90;;;22.60;1.00;;;;;;2610459;54;20442;-67
2024/02/28 06:09:57;;;;;;;3.20;3.10;;;22.60;1.00;;;;;;2610621;47;20949;-67
2024/02/28 06:12:23;;;;;;;3.23;3.13;;;22.70;1.00;;;;;;2610525;39;20956;-66
2024/02/28 06:14:49;;;;;;;3.47;3.37;;;22.60;1.00;;;;;;2610926;54;20153;-67
2024/02/28 06:17:15;;;;;;;3.60;3.50;;;22.60;1.00;;;;;;2610036;54;20546;-68
2024/02/28 06:19:40;;;;;;;3.70;3.60;;;22.70;1.00;;;;;;2610834;54;20273;-68
2024/02/28 06:22:07;;;;;;;3.50;3.40;;;22.60;1.00;;;;;;2610245;54;20165;-68
2024/02/28 06:24:36;;;;;;;3.53;3.43;;;22.60;1.00;;;;;;2609616;31;20749;-68
2024/02/28 06:27:02;;;;;;;3.33;3.23;;;22.70;1.00;;;;;;2610826;47;20615;-68
2024/02/28 06:29:27;;;;;;;3.50;3.40;;;22.70;1.00;;;;;;2612113;54;20510;-69
2024/02/28 06:31:55;;;;;;;3.20;3.10;;;22.70;1.00;;;;;;2610896;54;20403;-68
2024/02/28 06:34:22;;;;;;;3.10;3.00;;;22.80;1.00;;;;;;2611610;39;20686;-68
2024/02/28 06:36:48;;;;;;;2.87;2.77;;;22.80;1.00;;;;;;2611036;54;20454;-66
2024/02/28 06:39:15;;;;;;;3.50;3.40;;;22.80;1.00;;;;;;2611475;54;20412;-67
2024/02/28 06:41:40;;;;;;;3.80;3.70;;;22.70;1.00;;;;;;2611693;54;20429;-70
2024/02/28 06:44:07;;;;;;;3.33;3.23;;;22.70;1.00;;;;;;2610607;47;20429;-68
2024/02/28 06:46:33;;;;;;;3.90;3.80;;;22.80;1.00;;;;;;2611484;39;20535;-67
2024/02/28 06:48:59;;;;;;;3.40;3.30;;;22.70;1.00;;;;;;2610620;54;20515;-68
2024/02/28 06:51:24;;;;;;;2.50;2.40;;;22.70;1.00;;;;;;2606501;54;20344;-68
2024/02/28 06:53:50;;;;;;;2.50;2.40;;;22.70;1.00;;;;;;2608918;54;20150;-67
2024/02/28 06:56:15;;;;;;;2.60;2.50;;;22.70;1.00;;;;;;2609132;54;20188;-68
2024/02/28 06:58:41;;;;;;;2.60;2.50;;;22.70;1.00;;;;;;2609928;54;20735;-68
2024/02/28 07:01:07;;;;;;;2.90;2.80;;;22.70;1.00;;;;;;2611649;39;20565;-68
2024/02/28 07:03:33;;;;;;;2.70;2.60;;;22.70;1.00;;;;;;2609344;54;20158;-68
2024/02/28 07:05:58;;;;;;;2.70;2.60;;;22.70;1.00;;;;;;2609524;54;20167;-68
2024/02/28 07:08:24;;;;;;;3.70;3.50;;;22.80;1.00;;;;;;2610966;47;20305;-63
2024/02/28 07:10:53;;;;;;;2.80;2.70;;;22.80;1.00;;;;;;2610902;54;20154;-62
2024/02/28 07:13:20;;;;;;;2.40;2.30;;;22.80;1.00;;;;;;2610906;54;20156;-63
2024/02/28 07:15:46;;;;;;;2.80;2.70;;;22.80;1.00;;;;;;2610430;54;20427;-63
2024/02/28 07:18:12;;;;;;;2.50;2.40;;;22.80;1.00;;;;;;2611309;54;20429;-64
2024/02/28 07:20:38;;;;;;;2.77;2.67;;;22.80;1.00;;;;;;2611013;54;20471;-64
2024/02/28 07:23:04;;;;;;;2.80;2.70;;;22.80;1.00;;;;;;2610978;54;20240;-64
2024/02/28 07:25:31;;;;;;;2.60;2.50;;;22.90;1.00;;;;;;2609025;54;20143;-62
2024/02/28 07:27:59;;;;;;;3.10;3.00;;;22.80;1.00;;;;;;2610806;54;20147;-64
2024/02/28 07:30:25;;;;;;;4.00;3.90;;;22.80;1.00;;;;;;2609040;54;20414;-62
2024/02/28 07:32:51;;;;;;;2.90;2.80;;;23.20;1.00;;;;;;2610297;54;20438;-66
2024/02/28 07:35:16;;;;;;;2.60;2.50;;;23.50;1.00;;;;;;2610024;54;20185;-67
2024/02/28 07:37:42;;;;;;;3.07;2.97;;;23.30;1.00;;;;;;2610636;54;20159;-66
2024/02/28 07:40:08;;;;;;;4.83;4.63;;;22.60;1.00;;;;;;2610121;54;20708;-66
2024/02/28 07:42:34;;;;;;;5.70;5.50;;;22.30;1.00;;;;;;2610006;54;20426;-67
2024/02/28 07:45:01;;;;;;;6.20;6.00;;;22.60;1.00;;;;;;2610452;54;20391;-67
2024/02/28 07:47:26;;;;;;;5.47;5.27;;;22.90;1.00;;;;;;2610048;47;20427;-67
2024/02/28 07:49:53;;;;;;;5.70;5.50;;;23.20;1.00;;;;;;2610831;47;20510;-67
2024/02/28 07:52:19;;;;;;;6.40;6.20;;;23.50;1.00;;;;;;2611133;54;20253;-66
2024/02/28 07:54:45;;;;;;;9.53;8.83;;;23.70;1.00;;;;;;2610042;54;20436;-68
2024/02/28 07:57:11;;;;;;;6.90;6.70;;;23.70;1.00;;;;;;2612329;39;20806;-68
2024/02/28 07:59:41;;;;;;;6.70;6.50;;;23.80;1.00;;;;;;2610704;54;20249;-67
2024/02/28 08:02:07;;;;;;;6.80;6.60;;;23.90;1.00;;;;;;2609419;54;20501;-67
2024/02/28 08:04:34;;;;;;;8.87;8.57;;;23.90;1.00;;;;;;2611742;54;20477;-73
2024/02/28 08:07:00;;;;;;;6.83;6.63;;;24.10;1.00;;;;;;2611118;47;20419;-68
2024/02/28 08:09:25;;;;;;;7.00;6.80;;;24.30;1.00;;;;;;2612195;54;20401;-68
2024/02/28 08:11:51;;;;;;;6.57;6.37;;;24.20;1.00;;;;;;2611568;54;20158;-67
2024/02/28 08:14:17;;;;;;;6.80;6.60;;;24.10;1.00;;;;;;2610892;54;20183;-68
2024/02/28 08:16:43;;;;;;;6.30;6.10;;;24.00;1.00;;;;;;2612464;54;20173;-67
2024/02/28 08:19:09;;;;;;;5.97;5.77;;;24.00;1.00;;;;;;2610166;54;20482;-68
2024/02/28 08:21:35;;;;;;;6.50;6.30;;;24.10;1.00;;;;;;2611777;39;20633;-68
2024/02/28 08:24:04;;;;;;;6.43;6.23;;;24.20;1.00;;;;;;2611020;54;20402;-70
2024/02/28 08:26:30;;;;;;;4.20;4.10;;;24.30;1.00;;;;;;2609986;54;20765;-67
2024/02/28 08:28:56;;;;;;;8.10;7.80;;;24.20;1.00;;;;;;2611153;54;20455;-68
2024/02/28 08:31:21;;;;;;;7.90;7.60;;;24.00;1.00;;;;;;2611680;54;20427;-68
2024/02/28 08:33:47;;;;;;;7.90;7.70;;;23.90;1.00;;;;;;2611905;47;20170;-68
2024/02/28 08:36:12;;;;;;;7.37;7.17;;;23.90;1.00;;;;;;2613207;47;20201;-70
2024/02/28 08:38:38;;;;;;;8.53;8.23;;;23.80;1.00;;;;;;2611385;54;20262;-71
2024/02/28 08:41:05;;;;;;;8.50;8.20;;;23.90;1.00;;;;;;2611301;54;20163;-70
2024/02/28 08:43:30;;;;;;;7.13;6.93;;;23.90;1.00;;;;;;2611168;54;20420;-70
2024/02/28 08:45:56;;;;;;;8.30;8.00;;;23.90;1.00;;;;;;2611425;54;20446;-71
2024/02/28 08:48:22;;;;;;;7.20;7.00;;;23.90;1.00;;;;;;2612418;47;20174;-75
2024/02/28 08:50:48;;;;;;;9.50;9.20;;;23.90;1.00;;;;;;2612570;54;20208;-77
2024/02/28 08:53:14;;;;;;;9.10;8.80;;;23.90;1.00;;;;;;2611700;54;20430;-69
2024/02/28 08:55:40;;;;;;;7.33;7.13;;;23.90;1.00;;;;;;2611813;54;20433;-68
2024/02/28 08:58:05;;;;;;;5.20;5.00;;;23.90;1.00;;;;;;2611274;54;20772;-75
2024/02/28 09:00:31;;;;;;;9.43;9.13;;;23.90;1.00;;;;;;2611185;54;20715;-68
2024/02/28 09:02:57;;;;;;;7.53;7.33;;;23.90;1.00;;;;;;2611354;54;20663;-67
2024/02/28 09:05:23;;;;;;;9.30;9.00;;;24.10;1.00;;;;;;2610160;47;20275;-68
2024/02/28 09:07:51;;;;;;;9.10;8.80;;;24.10;1.00;;;;;;2611842;54;20419;-67
2024/02/28 09:10:23;;;;;;;9.40;9.10;;;24.20;1.00;;;;;;2611024;54;20426;-65
2024/02/28 09:12:50;;;;;;;9.40;9.10;;;24.20;1.00;;;;;;2610152;39;21020;-65
2024/02/28 09:15:15;;;;;;;8.30;8.00;;;24.20;1.00;;;;;;2609113;54;20453;-66
2024/02/28 09:17:41;;;;;;;9.80;9.50;;;24.20;1.00;;;;;;2610521;39;21304;-66
2024/02/28 09:20:08;;;;;;;9.43;9.13;;;24.20;1.00;;;;;;2610831;54;20208;-64
2024/02/28 09:22:34;;;;;;;9.93;9.63;;;24.20;1.00;;;;;;2609281;54;20145;-63
2024/02/28 09:25:04;;;;;;;7.93;7.73;;;24.20;1.00;;;;;;2610140;54;20508;-65
2024/02/28 09:27:30;;;;;;;8.47;8.17;;;24.30;1.00;;;;;;2610862;54;20404;-67
2024/02/28 09:29:56;;;;;;;8.40;8.10;;;24.30;1.00;;;;;;2610096;47;20437;-66
2024/02/28 09:32:21;;;;;;;8.30;8.00;;;24.20;1.00;;;;;;2611249;47;20467;-68
2024/02/28 09:34:47;;;;;;;8.50;8.20;;;24.30;1.00;;;;;;2611157;54;20313;-66
2024/02/28 09:37:14;;;;;;;8.67;8.37;;;24.20;1.00;;;;;;2611306;54;20204;-67
2024/02/28 09:39:40;;;;;;;9.60;9.30;;;24.20;1.00;;;;;;2611163;54;20164;-66
2024/02/28 09:42:08;;;;;;;7.30;7.10;;;24.20;1.00;;;;;;2610745;54;20423;-71
2024/02/28 09:44:34;;;;;;;7.40;7.20;;;24.20;1.00;;;;;;2612052;54;20383;-71
2024/02/28 09:47:00;;;;;;;7.33;7.13;;;24.20;1.00;;;;;;2611782;54;20439;-69
2024/02/28 09:49:28;;;;;;;7.60;7.40;;;24.20;1.00;;;;;;2612033;54;20397;-67
2024/02/28 09:51:56;;;;;;;7.70;7.50;;;24.20;1.00;;;;;;2611948;54;20404;-68
2024/02/28 09:54:22;;;;;;;6.60;6.40;;;24.20;1.00;;;;;;2611135;54;20576;-67
2024/02/28 09:56:48;;;;;;;8.70;8.40;;;24.20;1.00;;;;;;2611596;54;20405;-70
2024/02/28 09:59:17;;;;;;;8.03;7.73;;;24.10;1.00;;;;;;2611022;54;20150;-66
2024/02/28 10:01:46;;;;;;;10.30;9.90;;;24.00;1.00;;;;;;2611116;39;20899;-64
2024/02/28 10:04:13;;;;;;;9.13;8.83;;;23.90;1.00;;;;;;2610853;54;20429;-69
2024/02/28 10:06:42;;;;;;;11.70;11.30;;;23.90;1.00;;;;;;2611258;54;20407;-64
2024/02/28 10:09:08;;;;;;;9.97;9.67;;;23.90;1.00;;;;;;2610940;47;20421;-64
2024/02/28 10:11:35;;;;;;;9.63;9.33;;;23.80;1.00;;;;;;2606751;47;20423;-62
2024/02/28 10:14:01;;;;;;;9.90;9.60;;;23.80;1.00;;;;;;2610620;54;20163;-62
2024/02/28 10:16:27;;;;;;;10.80;10.50;;;23.80;1.00;;;;;;2611460;47;20403;-62
2024/02/28 10:18:53;;;;;;;8.90;8.60;;;23.80;1.00;;;;;;2610993;54;21503;-62
2024/02/28 10:21:19;;;;;;;10.60;10.30;;;23.70;1.00;;;;;;2611159;54;20153;-63
2024/02/28 10:23:45;;;;;;;9.10;8.80;;;23.80;1.00;;;;;;2611351;54;20391;-63
2024/02/28 10:26:12;;;;;;;10.30;10.00;;;23.70;1.00;;;;;;2611232;54;20168;-61
2024/02/28 10:28:39;;;;;;;8.77;8.47;;;23.70;1.00;;;;;;2611419;54;20419;-62
2024/02/28 10:31:08;;;;;;;6.17;5.97;;;23.70;1.00;;;;;;2610884;54;20405;-65
2024/02/28 10:33:35;;;;;;;3.60;3.50;;;23.90;1.00;;;;;;2611735;54;20412;-66
2024/02/28 10:36:03;;;;;;;11.83;11.43;;;24.00;1.00;;;;;;2611244;54;20484;-63
2024/02/28 10:38:31;;;;;;;12.07;11.67;;;23.90;1.00;;;;;;2609875;54;20442;-65
2024/02/28 10:40:59;;;;;;;13.00;12.60;;;24.00;1.00;;;;;;2611969;39;21109;-67
2024/02/28 10:43:28;;;;;;;12.70;12.30;;;24.10;1.00;;;;;;2610515;54;20434;-65
2024/02/28 10:45:59;;;;;;;12.83;12.43;;;24.30;1.00;;;;;;2611277;47;20423;-66
2024/02/28 10:48:28;;;;;;;12.70;12.30;;;24.30;1.00;;;;;;2611166;54;20397;-68
2024/02/28 10:50:57;;;;;;;13.80;13.40;;;24.50;1.00;;;;;;2610247;54;20964;-67
2024/02/28 10:53:48;;;;;;;13.60;13.20;;;24.40;1.00;;;;;;2612383;54;20421;-69
2024/02/28 10:56:16;;;;;;;13.00;12.60;;;24.40;1.00;;;;;;2611622;54;20480;-68
2024/02/28 10:58:51;;;;;;;4.20;4.10;;;24.40;1.00;;;;;;2611510;54;20547;-61
2024/02/28 11:01:17;;;;;;;4.40;4.30;;;24.60;1.00;;;;;;2609839;47;20439;-63
2024/02/28 11:03:44;;;;;;;6.07;5.77;;;24.70;1.00;;;;;;2610946;54;20426;-63
2024/02/28 11:06:21;;;;;;;5.30;5.10;;;24.80;1.00;;;;;;2610577;54;20451;-63
2024/02/28 11:08:56;;;;;;;9.20;8.90;;;24.90;1.00;;;;;;2611046;39;21213;-64
2024/02/28 11:11:22;;;;;;;5.50;5.30;;;24.90;1.00;;;;;;2609846;54;20398;-62
2024/02/28 11:13:56;;;;;;;5.47;5.27;;;24.90;1.00;;;;;;2609142;54;20413;-62
2024/02/28 11:16:32;;;;;;;4.87;4.67;;;24.40;1.00;;;;;;2610104;39;20828;-61
2024/02/28 11:18:59;;;;;;;5.03;4.83;;;24.00;1.00;;;;;;2612028;54;20398;-63
2024/02/28 11:21:26;;;;;;;5.00;4.80;;;23.80;1.00;;;;;;2610427;54;20399;-61
2024/02/28 11:23:52;;;;;;;5.30;5.10;;;23.70;1.00;;;;;;2610970;54;20437;-62
2024/02/28 11:26:19;;;;;;;11.70;11.30;;;23.60;1.00;;;;;;2610567;47;20423;-62
2024/02/28 11:28:44;;;;;;;12.10;11.70;;;23.70;1.00;;;;;;2609816;54;20387;-59
2024/02/28 11:31:10;;;;;;;11.40;11.00;;;23.90;1.00;;;;;;2610353;54;20406;-60
2024/02/28 11:33:36;;;;;;;11.70;11.30;;;24.10;1.00;;;;;;2610911;54;20147;-59
2024/02/28 11:36:03;;;;;;;12.03;11.63;;;24.20;1.00;;;;;;2610575;54;20200;-59
2024/02/28 11:38:29;;;;;;;4.00;3.90;;;24.30;1.00;;;;;;2609837;47;20517;-59
2024/02/28 11:40:55;;;;;;;4.20;4.10;;;24.30;1.00;;;;;;2608775;54;21008;-59
2024/02/28 11:43:21;;;;;;;5.40;5.20;;;24.30;1.00;;;;;;2608528;54;20399;-58
2024/02/28 11:45:47;;;;;;;3.40;3.30;;;24.40;1.00;;;;;;2610509;39;20783;-59
2024/02/28 11:48:16;;;;;;;4.00;3.90;;;24.50;1.00;;;;;;2610478;54;20557;-62
2024/02/28 11:50:42;;;;;;;9.20;8.90;;;24.50;1.00;;;;;;2610617;54;20149;-61
2024/02/28 11:53:08;;;;;;;5.10;4.90;;;24.60;1.00;;;;;;2611035;54;20399;-65
2024/02/28 11:55:35;;;;;;;3.43;3.33;;;24.80;1.00;;;;;;2609444;39;20796;-65
2024/02/28 11:58:01;;;;;;;3.10;3.00;;;24.80;1.00;;;;;;2609249;39;21123;-64
2024/02/28 12:00:27;;;;;;;3.30;3.20;;;24.80;1.00;;;;;;2609743;54;20436;-64
2024/02/28 12:03:03;;;;;;;2.50;2.40;;;24.70;1.00;;;;;;2609845;54;20163;-65
2024/02/28 12:05:29;;;;;;;3.20;3.10;;;24.80;1.00;;;;;;2608685;54;20705;-66
2024/02/28 12:07:55;;;;;;;3.47;3.37;;;24.70;1.00;;;;;;2608316;54;20412;-60
2024/02/28 12:10:22;;;;;;;3.47;3.37;;;24.50;1.00;;;;;;2611005;54;20392;-60
2024/02/28 12:12:49;;;;;;;3.37;3.27;;;24.50;1.00;;;;;;2611274;39;22284;-59
2024/02/28 12:15:16;;;;;;;3.40;3.30;;;24.40;1.00;;;;;;2610884;54;20435;-59
2024/02/28 12:17:42;;;;;;;3.00;2.90;;;24.40;1.00;;;;;;2610129;54;20488;-59
2024/02/28 12:20:09;;;;;;;3.40;3.30;;;24.40;1.00;;;;;;2607629;54;20504;-59
2024/02/28 12:22:34;;;;;;;4.00;3.90;;;24.40;1.00;;;;;;2607246;54;21556;-53
2024/02/28 12:25:04;;;;;;;2.40;2.30;;;24.60;1.00;;;;;;2607890;54;20402;-59
2024/02/28 12:27:31;;;;;;;3.60;3.50;;;24.70;1.00;;;;;;2609018;39;21069;-59
2024/02/28 12:29:56;;;;;;;5.13;4.93;;;24.90;1.00;;;;;;2607746;39;20870;-60
2024/02/28 12:32:22;;;;;;;5.07;4.87;;;24.90;1.00;;;;;;2610071;54;20579;-60
2024/02/28 12:34:48;;;;;;;4.83;4.63;;;24.90;1.00;;;;;;2607031;54;20193;-61
2024/02/28 12:37:13;;;;;;;5.17;4.97;;;24.80;1.00;;;;;;2608023;54;20704;-61
2024/02/28 12:39:39;;;;;;;5.40;5.20;;;24.70;1.00;;;;;;2607793;54;20645;-60
2024/02/28 12:42:07;;;;;;;4.60;4.50;;;24.70;1.00;;;;;;2606616;54;20207;-60
2024/02/28 12:44:33;;;;;;;5.20;5.00;;;24.70;1.00;;;;;;2608639;39;20630;-60
2024/02/28 12:46:59;;;;;;;4.57;4.47;;;24.70;1.00;;;;;;2606207;54;20417;-60
2024/02/28 12:49:24;;;;;;;4.93;4.73;;;24.60;1.00;;;;;;2609595;54;20172;-60
2024/02/28 12:51:51;;;;;;;5.00;4.80;;;24.70;1.00;;;;;;2605412;54;21047;-61